sensor_id;sensor_type;location;lat;lon;timestamp;pressure;altitude;pressure_sealevel;temperature;humidity
8101;BME280;4093;53.470;9.832;2023-03-01T00:01:32;103167.78;;;0.37;74.46
8101;BME280;4093;53.470;9.832;2023-03-01T00:04:00;103144.78;;;0.09;74.20
8101;BME280;4093;53.470;9.832;2023-03-01T00:06:29;103133.44;;;-0.22;74.95
8101;BME280;4093;53.470;9.832;2023-03-01T00:08:57;103153.53;;;-0.39;77.14
8101;BME280;4093;53.470;9.832;2023-03-01T00:11:26;103159.97;;;-0.44;77.18
8101;BME280;4093;53.470;9.832;2023-03-01T00:13:56;103177.66;;;-0.07;76.10
8101;BME280;4093;53.470;9.832;2023-03-01T00:16:26;103176.31;;;0.25;74.22
8101;BME280;4093;53.470;9.832;2023-03-01T00:18:56;103161.25;;;0.54;74.51
8101;BME280;4093;53.470;9.832;2023-03-01T00:21:25;103154.38;;;0.53;73.41
8101;BME280;4093;53.470;9.832;2023-03-01T00:23:54;103161.44;;;0.57;74.44
8101;BME280;4093;53.470;9.832;2023-03-01T00:26:24;103148.28;;;0.78;74.06
8101;BME280;4093;53.470;9.832;2023-03-01T00:28:53;103150.28;;;0.97;73.69
8101;BME280;4093;53.470;9.832;2023-03-01T00:31:23;103095.69;;;0.78;73.44
8101;BME280;4093;53.470;9.832;2023-03-01T00:33:52;103161.50;;;1.13;72.14
8101;BME280;4093;53.470;9.832;2023-03-01T00:36:24;103150.78;;;1.19;72.21
8101;BME280;4093;53.470;9.832;2023-03-01T00:38:52;103147.34;;;1.19;72.28
8101;BME280;4093;53.470;9.832;2023-03-01T00:41:22;103118.44;;;0.62;72.04
8101;BME280;4093;53.470;9.832;2023-03-01T00:43:50;103112.13;;;-0.11;75.52
8101;BME280;4093;53.470;9.832;2023-03-01T00:46:19;103140.41;;;0.33;74.52
8101;BME280;4093;53.470;9.832;2023-03-01T00:48:48;103151.25;;;0.57;74.04
8101;BME280;4093;53.470;9.832;2023-03-01T00:51:17;103155.22;;;0.80;73.79
8101;BME280;4093;53.470;9.832;2023-03-01T00:53:46;103148.84;;;0.87;74.96
8101;BME280;4093;53.470;9.832;2023-03-01T00:56:14;103118.41;;;0.20;73.80
8101;BME280;4093;53.470;9.832;2023-03-01T00:58:49;103108.81;;;0.03;74.55
8101;BME280;4093;53.470;9.832;2023-03-01T01:01:18;103113.84;;;-0.50;76.87
8101;BME280;4093;53.470;9.832;2023-03-01T01:03:48;103137.94;;;-0.18;76.89
8101;BME280;4093;53.470;9.832;2023-03-01T01:06:17;103134.22;;;-0.24;76.73
8101;BME280;4093;53.470;9.832;2023-03-01T01:08:46;103137.81;;;-0.33;77.92
8101;BME280;4093;53.470;9.832;2023-03-01T01:11:14;103123.59;;;-0.56;78.54
8101;BME280;4093;53.470;9.832;2023-03-01T01:13:43;103124.75;;;-0.51;77.65
8101;BME280;4093;53.470;9.832;2023-03-01T01:16:13;103114.34;;;-0.81;78.94
8101;BME280;4093;53.470;9.832;2023-03-01T01:18:41;103126.50;;;-0.63;78.79
8101;BME280;4093;53.470;9.832;2023-03-01T01:21:11;103123.19;;;-0.62;78.49
8101;BME280;4093;53.470;9.832;2023-03-01T01:23:40;103110.50;;;-0.62;78.57
8101;BME280;4093;53.470;9.832;2023-03-01T01:26:10;103132.47;;;-0.25;76.40
8101;BME280;4093;53.470;9.832;2023-03-01T01:28:38;103127.78;;;-0.05;75.52
8101;BME280;4093;53.470;9.832;2023-03-01T01:31:06;103112.41;;;-0.07;74.71
8101;BME280;4093;53.470;9.832;2023-03-01T01:33:35;103104.56;;;-0.36;76.12
8101;BME280;4093;53.470;9.832;2023-03-01T01:36:04;103103.63;;;-0.63;77.81
8101;BME280;4093;53.470;9.832;2023-03-01T01:38:32;103129.81;;;-0.13;77.88
8101;BME280;4093;53.470;9.832;2023-03-01T01:40:59;103129.56;;;0.22;78.71
8101;BME280;4093;53.470;9.832;2023-03-01T01:43:29;103121.13;;;0.37;75.98
8101;BME280;4093;53.470;9.832;2023-03-01T01:45:59;103082.91;;;0.22;73.55
8101;BME280;4093;53.470;9.832;2023-03-01T01:48:34;103099.03;;;0.36;74.42
8101;BME280;4093;53.470;9.832;2023-03-01T01:51:11;103076.16;;;0.22;73.83
8101;BME280;4093;53.470;9.832;2023-03-01T01:53:40;103072.59;;;-0.59;77.65
8101;BME280;4093;53.470;9.832;2023-03-01T01:56:10;103071.72;;;-0.85;79.59
8101;BME280;4093;53.470;9.832;2023-03-01T01:58:40;103089.78;;;-0.55;79.68
8101;BME280;4093;53.470;9.832;2023-03-01T02:01:11;103087.44;;;-0.52;78.97
8101;BME280;4093;53.470;9.832;2023-03-01T02:03:39;103071.47;;;-1.01;80.78
8101;BME280;4093;53.470;9.832;2023-03-01T02:06:17;103089.59;;;-0.58;79.11
8101;BME280;4093;53.470;9.832;2023-03-01T02:08:46;103100.22;;;-0.12;76.90
8101;BME280;4093;53.470;9.832;2023-03-01T02:11:17;103055.75;;;-0.71;79.24
8101;BME280;4093;53.470;9.832;2023-03-01T02:13:47;103102.66;;;-0.01;77.54
8101;BME280;4093;53.470;9.832;2023-03-01T02:16:16;103088.06;;;0.23;76.12
8101;BME280;4093;53.470;9.832;2023-03-01T02:18:45;103057.47;;;-0.18;75.97
8101;BME280;4093;53.470;9.832;2023-03-01T02:21:25;103059.09;;;-0.58;78.78
8101;BME280;4093;53.470;9.832;2023-03-01T02:23:59;103063.19;;;-0.60;79.42
8101;BME280;4093;53.470;9.832;2023-03-01T02:26:36;103081.59;;;-0.38;79.19
8101;BME280;4093;53.470;9.832;2023-03-01T02:29:09;103077.72;;;-0.06;78.08
8101;BME280;4093;53.470;9.832;2023-03-01T02:31:37;103088.94;;;0.24;77.16
8101;BME280;4093;53.470;9.832;2023-03-01T02:34:13;103082.38;;;0.41;76.51
8101;BME280;4093;53.470;9.832;2023-03-01T02:36:44;103065.25;;;0.38;76.52
8101;BME280;4093;53.470;9.832;2023-03-01T02:39:15;103074.09;;;0.58;75.82
8101;BME280;4093;53.470;9.832;2023-03-01T02:41:47;103070.38;;;0.66;75.38
8101;BME280;4093;53.470;9.832;2023-03-01T02:44:17;103044.66;;;0.07;75.82
8101;BME280;4093;53.470;9.832;2023-03-01T02:46:47;103050.44;;;-0.09;77.44
8101;BME280;4093;53.470;9.832;2023-03-01T02:49:20;103053.25;;;-0.04;76.81
8101;BME280;4093;53.470;9.832;2023-03-01T02:52:01;103044.78;;;-1.08;81.70
8101;BME280;4093;53.470;9.832;2023-03-01T02:54:37;103080.69;;;-0.52;81.04
8101;BME280;4093;53.470;9.832;2023-03-01T02:57:08;103080.16;;;-0.21;79.79
8101;BME280;4093;53.470;9.832;2023-03-01T02:59:38;103076.53;;;0.15;77.41
8101;BME280;4093;53.470;9.832;2023-03-01T03:02:07;103054.84;;;-0.06;78.16
8101;BME280;4093;53.470;9.832;2023-03-01T03:04:35;103084.94;;;0.28;78.06
8101;BME280;4093;53.470;9.832;2023-03-01T03:07:02;103074.72;;;0.54;77.46
8101;BME280;4093;53.470;9.832;2023-03-01T03:09:30;103053.69;;;0.72;76.80
8101;BME280;4093;53.470;9.832;2023-03-01T03:11:58;103060.97;;;0.93;76.10
8101;BME280;4093;53.470;9.832;2023-03-01T03:14:25;103050.88;;;0.95;75.39
8101;BME280;4093;53.470;9.832;2023-03-01T03:16:54;103031.50;;;0.41;75.77
8101;BME280;4093;53.470;9.832;2023-03-01T03:19:22;103031.84;;;-0.08;78.76
8101;BME280;4093;53.470;9.832;2023-03-01T03:21:50;103048.63;;;0.30;77.46
8101;BME280;4093;53.470;9.832;2023-03-01T03:24:17;103037.53;;;-0.12;79.33
8101;BME280;4093;53.470;9.832;2023-03-01T03:26:45;103027.06;;;-0.43;81.09
8101;BME280;4093;53.470;9.832;2023-03-01T03:29:13;103052.13;;;-0.09;80.54
8101;BME280;4093;53.470;9.832;2023-03-01T03:31:40;103065.00;;;0.07;80.11
8101;BME280;4093;53.470;9.832;2023-03-01T03:34:09;103051.84;;;0.41;78.41
8101;BME280;4093;53.470;9.832;2023-03-01T03:36:44;103040.72;;;0.67;77.11
8101;BME280;4093;53.470;9.832;2023-03-01T03:39:11;103044.06;;;0.81;75.55
8101;BME280;4093;53.470;9.832;2023-03-01T03:41:39;103036.44;;;0.81;75.03
8101;BME280;4093;53.470;9.832;2023-03-01T03:44:07;103014.13;;;0.49;76.01
8101;BME280;4093;53.470;9.832;2023-03-01T03:46:34;103009.22;;;0.23;77.94
8101;BME280;4093;53.470;9.832;2023-03-01T03:49:02;103028.53;;;0.48;77.59
8101;BME280;4093;53.470;9.832;2023-03-01T03:51:31;103030.97;;;0.46;78.72
8101;BME280;4093;53.470;9.832;2023-03-01T03:53:58;103034.38;;;0.60;78.18
8101;BME280;4093;53.470;9.832;2023-03-01T03:56:26;103034.38;;;0.60;78.57
8101;BME280;4093;53.470;9.832;2023-03-01T03:58:54;103027.84;;;0.93;77.30
8101;BME280;4093;53.470;9.832;2023-03-01T04:01:22;103028.41;;;1.18;76.27
8101;BME280;4093;53.470;9.832;2023-03-01T04:03:50;103008.91;;;1.03;75.32
8101;BME280;4093;53.470;9.832;2023-03-01T04:06:21;102997.53;;;-0.01;80.13
8101;BME280;4093;53.470;9.832;2023-03-01T04:08:50;103023.19;;;0.30;80.07
8101;BME280;4093;53.470;9.832;2023-03-01T04:11:24;103015.06;;;0.36;79.91
8101;BME280;4093;53.470;9.832;2023-03-01T04:13:56;103023.81;;;0.82;78.53
8101;BME280;4093;53.470;9.832;2023-03-01T04:16:24;103022.34;;;1.01;77.10
8101;BME280;4093;53.470;9.832;2023-03-01T04:18:52;102999.25;;;1.12;76.18
8101;BME280;4093;53.470;9.832;2023-03-01T04:21:21;102992.38;;;0.97;77.13
8101;BME280;4093;53.470;9.832;2023-03-01T04:23:50;103003.63;;;1.00;77.79
8101;BME280;4093;53.470;9.832;2023-03-01T04:26:19;103002.13;;;1.19;76.94
8101;BME280;4093;53.470;9.832;2023-03-01T04:28:47;103004.50;;;1.15;77.02
8101;BME280;4093;53.470;9.832;2023-03-01T04:31:18;102981.44;;;0.55;79.97
8101;BME280;4093;53.470;9.832;2023-03-01T04:33:49;103004.84;;;0.92;80.53
8101;BME280;4093;53.470;9.832;2023-03-01T04:36:20;103009.53;;;1.29;78.56
8101;BME280;4093;53.470;9.832;2023-03-01T04:38:50;103001.97;;;1.30;78.69
8101;BME280;4093;53.470;9.832;2023-03-01T04:41:21;103011.81;;;1.24;79.50
8101;BME280;4093;53.470;9.832;2023-03-01T04:43:49;103004.06;;;1.52;78.29
8101;BME280;4093;53.470;9.832;2023-03-01T04:46:19;103006.16;;;1.74;77.69
8101;BME280;4093;53.470;9.832;2023-03-01T04:48:47;102990.97;;;1.61;77.54
8101;BME280;4093;53.470;9.832;2023-03-01T04:51:15;103000.47;;;1.34;80.03
8101;BME280;4093;53.470;9.832;2023-03-01T04:53:44;103001.22;;;1.62;79.51
8101;BME280;4093;53.470;9.832;2023-03-01T04:56:13;102993.66;;;1.79;78.64
8101;BME280;4093;53.470;9.832;2023-03-01T04:58:41;102987.75;;;1.80;78.47
8101;BME280;4093;53.470;9.832;2023-03-01T05:01:10;102959.94;;;1.53;79.21
8101;BME280;4093;53.470;9.832;2023-03-01T05:03:42;102998.72;;;1.94;79.49
8101;BME280;4093;53.470;9.832;2023-03-01T05:06:11;102999.22;;;2.19;78.81
8101;BME280;4093;53.470;9.832;2023-03-01T05:08:39;102970.56;;;1.61;79.74
8101;BME280;4093;53.470;9.832;2023-03-01T05:11:07;102991.16;;;1.95;79.27
8101;BME280;4093;53.470;9.832;2023-03-01T05:13:38;102980.50;;;1.88;79.99
8101;BME280;4093;53.470;9.832;2023-03-01T05:16:07;102992.06;;;2.12;77.97
8101;BME280;4093;53.470;9.832;2023-03-01T05:18:38;102986.81;;;1.94;80.22
8101;BME280;4093;53.470;9.832;2023-03-01T05:21:07;102991.19;;;2.12;79.39
8101;BME280;4093;53.470;9.832;2023-03-01T05:23:35;102978.06;;;1.89;80.59
8101;BME280;4093;53.470;9.832;2023-03-01T05:26:05;102981.88;;;1.97;80.83
8101;BME280;4093;53.470;9.832;2023-03-01T05:28:52;102983.53;;;2.12;80.13
8101;BME280;4093;53.470;9.832;2023-03-01T05:31:24;102990.38;;;2.13;80.09
8101;BME280;4093;53.470;9.832;2023-03-01T05:33:52;102980.91;;;1.79;81.66
8101;BME280;4093;53.470;9.832;2023-03-01T05:36:20;102982.34;;;2.38;79.59
8101;BME280;4093;53.470;9.832;2023-03-01T05:38:48;102980.69;;;2.54;77.82
8101;BME280;4093;53.470;9.832;2023-03-01T05:41:15;102976.38;;;2.37;79.03
8101;BME280;4093;53.470;9.832;2023-03-01T05:43:43;102980.47;;;2.02;81.24
8101;BME280;4093;53.470;9.832;2023-03-01T05:46:12;102987.88;;;2.29;80.43
8101;BME280;4093;53.470;9.832;2023-03-01T05:48:41;102977.81;;;2.32;80.07
8101;BME280;4093;53.470;9.832;2023-03-01T05:51:10;102960.28;;;1.91;81.07
8101;BME280;4093;53.470;9.832;2023-03-01T05:53:38;102988.56;;;2.26;81.72
8101;BME280;4093;53.470;9.832;2023-03-01T05:56:06;102982.69;;;2.60;79.92
8101;BME280;4093;53.470;9.832;2023-03-01T05:58:33;102978.13;;;2.71;79.58
8101;BME280;4093;53.470;9.832;2023-03-01T06:01:01;102970.78;;;2.61;78.58
8101;BME280;4093;53.470;9.832;2023-03-01T06:03:30;102975.63;;;2.72;78.98
8101;BME280;4093;53.470;9.832;2023-03-01T06:05:58;102965.09;;;2.66;78.67
8101;BME280;4093;53.470;9.832;2023-03-01T06:08:26;102977.34;;;2.39;81.85
8101;BME280;4093;53.470;9.832;2023-03-01T06:10:54;102977.16;;;2.69;80.64
8101;BME280;4093;53.470;9.832;2023-03-01T06:13:22;102976.50;;;2.89;79.55
8101;BME280;4093;53.470;9.832;2023-03-01T06:15:50;102952.75;;;2.41;81.38
8101;BME280;4093;53.470;9.832;2023-03-01T06:18:18;102968.47;;;2.49;82.11
8101;BME280;4093;53.470;9.832;2023-03-01T06:20:52;102970.63;;;2.74;81.04
8101;BME280;4093;53.470;9.832;2023-03-01T06:23:20;102948.53;;;2.42;81.50
8101;BME280;4093;53.470;9.832;2023-03-01T06:25:47;102963.59;;;2.53;82.02
8101;BME280;4093;53.470;9.832;2023-03-01T06:28:15;102930.88;;;2.79;80.11
8101;BME280;4093;53.470;9.832;2023-03-01T06:30:43;102953.66;;;2.92;81.16
8101;BME280;4093;53.470;9.832;2023-03-01T06:33:11;102955.09;;;2.87;81.97
8101;BME280;4093;53.470;9.832;2023-03-01T06:35:39;102956.34;;;2.61;83.51
8101;BME280;4093;53.470;9.832;2023-03-01T06:38:09;102961.88;;;3.21;81.56
8101;BME280;4093;53.470;9.832;2023-03-01T06:40:36;102947.69;;;3.10;80.28
8101;BME280;4093;53.470;9.832;2023-03-01T06:43:04;102953.66;;;3.10;81.59
8101;BME280;4093;53.470;9.832;2023-03-01T06:45:33;102945.59;;;3.01;81.41
8101;BME280;4093;53.470;9.832;2023-03-01T06:48:02;102954.38;;;3.24;80.96
8101;BME280;4093;53.470;9.832;2023-03-01T06:50:31;102963.78;;;3.43;80.28
8101;BME280;4093;53.470;9.832;2023-03-01T06:53:00;102944.28;;;3.27;79.67
8101;BME280;4093;53.470;9.832;2023-03-01T06:55:29;102951.94;;;3.09;80.78
8101;BME280;4093;53.470;9.832;2023-03-01T06:57:58;102957.97;;;3.45;80.32
8101;BME280;4093;53.470;9.832;2023-03-01T07:00:27;102908.78;;;3.15;79.15
8101;BME280;4093;53.470;9.832;2023-03-01T07:02:58;102958.28;;;3.35;79.63
8101;BME280;4093;53.470;9.832;2023-03-01T07:05:26;102957.78;;;3.24;80.40
8101;BME280;4093;53.470;9.832;2023-03-01T07:07:54;102958.28;;;3.35;79.73
8101;BME280;4093;53.470;9.832;2023-03-01T07:10:22;102963.22;;;3.48;79.58
8101;BME280;4093;53.470;9.832;2023-03-01T07:12:54;102969.50;;;3.55;80.12
8101;BME280;4093;53.470;9.832;2023-03-01T07:15:22;102947.69;;;2.92;81.83
8101;BME280;4093;53.470;9.832;2023-03-01T07:17:49;102973.84;;;3.04;81.79
8101;BME280;4093;53.470;9.832;2023-03-01T07:20:18;102960.09;;;3.54;79.89
8101;BME280;4093;53.470;9.832;2023-03-01T07:22:48;102943.75;;;3.16;80.79
8101;BME280;4093;53.470;9.832;2023-03-01T07:25:16;102965.06;;;3.51;80.76
8101;BME280;4093;53.470;9.832;2023-03-01T07:27:49;102942.31;;;3.39;79.54
8101;BME280;4093;53.470;9.832;2023-03-01T07:30:19;102951.25;;;3.85;79.18
8101;BME280;4093;53.470;9.832;2023-03-01T07:32:47;102943.94;;;3.92;77.63
8101;BME280;4093;53.470;9.832;2023-03-01T07:35:15;102948.53;;;4.00;77.63
8101;BME280;4093;53.470;9.832;2023-03-01T07:37:43;102936.63;;;3.82;78.60
8101;BME280;4093;53.470;9.832;2023-03-01T07:40:12;102940.88;;;4.19;77.61
8101;BME280;4093;53.470;9.832;2023-03-01T07:42:39;102938.56;;;4.25;77.06
8101;BME280;4093;53.470;9.832;2023-03-01T07:45:08;102942.47;;;4.56;76.68
8101;BME280;4093;53.470;9.832;2023-03-01T07:47:37;102937.09;;;4.50;75.60
8101;BME280;4093;53.470;9.832;2023-03-01T07:50:05;102924.63;;;4.18;76.67
8101;BME280;4093;53.470;9.832;2023-03-01T07:52:33;102938.75;;;4.10;77.48
8101;BME280;4093;53.470;9.832;2023-03-01T07:55:01;102950.84;;;4.52;75.97
8101;BME280;4093;53.470;9.832;2023-03-01T07:57:28;102953.00;;;4.62;74.77
8101;BME280;4093;53.470;9.832;2023-03-01T07:59:56;102943.88;;;4.69;75.29
8101;BME280;4093;53.470;9.832;2023-03-01T08:02:24;102952.69;;;4.75;71.91
8101;BME280;4093;53.470;9.832;2023-03-01T08:04:53;102956.50;;;4.85;73.53
8101;BME280;4093;53.470;9.832;2023-03-01T08:07:21;102953.09;;;4.84;73.03
8101;BME280;4093;53.470;9.832;2023-03-01T08:09:48;102942.91;;;5.07;71.04
8101;BME280;4093;53.470;9.832;2023-03-01T08:12:16;102946.41;;;5.09;70.51
8101;BME280;4093;53.470;9.832;2023-03-01T08:14:44;102931.66;;;5.03;69.30
8101;BME280;4093;53.470;9.832;2023-03-01T08:17:13;102951.47;;;5.28;69.31
8101;BME280;4093;53.470;9.832;2023-03-01T08:19:42;102934.63;;;5.35;67.93
8101;BME280;4093;53.470;9.832;2023-03-01T08:22:11;102935.44;;;5.55;67.39
8101;BME280;4093;53.470;9.832;2023-03-01T08:24:39;102932.63;;;5.49;65.83
8101;BME280;4093;53.470;9.832;2023-03-01T08:27:07;102935.31;;;5.74;66.78
8101;BME280;4093;53.470;9.832;2023-03-01T08:29:35;102927.31;;;6.36;66.45
8101;BME280;4093;53.470;9.832;2023-03-01T08:32:03;102924.78;;;7.12;62.60
8101;BME280;4093;53.470;9.832;2023-03-01T08:34:31;102916.03;;;7.07;60.78
8101;BME280;4093;53.470;9.832;2023-03-01T08:36:58;102918.16;;;7.21;59.83
8101;BME280;4093;53.470;9.832;2023-03-01T08:39:27;102912.81;;;7.41;60.16
8101;BME280;4093;53.470;9.832;2023-03-01T08:41:55;102895.00;;;7.21;59.44
8101;BME280;4093;53.470;9.832;2023-03-01T08:44:24;102904.72;;;6.77;61.36
8101;BME280;4093;53.470;9.832;2023-03-01T08:46:52;102904.63;;;6.99;60.63
8101;BME280;4093;53.470;9.832;2023-03-01T08:49:22;102905.56;;;7.28;60.35
8101;BME280;4093;53.470;9.832;2023-03-01T08:51:50;102901.44;;;7.33;60.85
8101;BME280;4093;53.470;9.832;2023-03-01T08:54:19;102902.53;;;7.14;59.95
8101;BME280;4093;53.470;9.832;2023-03-01T08:56:49;102904.34;;;6.90;59.89
8101;BME280;4093;53.470;9.832;2023-03-01T08:59:17;102907.81;;;6.92;61.36
8101;BME280;4093;53.470;9.832;2023-03-01T09:01:45;102906.22;;;7.23;61.05
8101;BME280;4093;53.470;9.832;2023-03-01T09:04:14;102908.88;;;7.53;61.66
8101;BME280;4093;53.470;9.832;2023-03-01T09:06:43;102909.53;;;8.04;58.52
8101;BME280;4093;53.470;9.832;2023-03-01T09:09:13;102902.75;;;8.38;58.33
8101;BME280;4093;53.470;9.832;2023-03-01T09:11:42;102887.72;;;8.90;57.61
8101;BME280;4093;53.470;9.832;2023-03-01T09:14:14;102890.03;;;9.14;57.01
8101;BME280;4093;53.470;9.832;2023-03-01T09:16:42;102848.31;;;8.95;56.02
8101;BME280;4093;53.470;9.832;2023-03-01T09:19:09;102881.41;;;9.13;56.20
8101;BME280;4093;53.470;9.832;2023-03-01T09:21:37;102883.81;;;8.38;58.87
8101;BME280;4093;53.470;9.832;2023-03-01T09:24:08;102901.69;;;8.31;60.07
8101;BME280;4093;53.470;9.832;2023-03-01T09:26:39;102888.50;;;7.60;62.44
8101;BME280;4093;53.470;9.832;2023-03-01T09:29:07;102901.28;;;7.29;63.61
8101;BME280;4093;53.470;9.832;2023-03-01T09:31:38;102895.81;;;7.75;63.06
8101;BME280;4093;53.470;9.832;2023-03-01T09:34:06;102871.72;;;6.63;67.06
8101;BME280;4093;53.470;9.832;2023-03-01T09:36:34;102896.50;;;7.70;64.77
8101;BME280;4093;53.470;9.832;2023-03-01T09:39:02;102878.31;;;7.63;65.64
8101;BME280;4093;53.470;9.832;2023-03-01T09:41:44;102895.19;;;8.14;65.54
8101;BME280;4093;53.470;9.832;2023-03-01T09:44:21;102888.41;;;8.18;64.69
8101;BME280;4093;53.470;9.832;2023-03-01T09:46:52;102888.00;;;8.66;64.02
8101;BME280;4093;53.470;9.832;2023-03-01T09:49:23;102883.47;;;8.55;64.48
8101;BME280;4093;53.470;9.832;2023-03-01T09:51:57;102878.47;;;8.63;63.92
8101;BME280;4093;53.470;9.832;2023-03-01T09:54:26;102868.09;;;8.60;64.06
8101;BME280;4093;53.470;9.832;2023-03-01T09:57:09;102867.47;;;8.69;64.25
8101;BME280;4093;53.470;9.832;2023-03-01T09:59:54;102888.09;;;9.05;64.74
8101;BME280;4093;53.470;9.832;2023-03-01T10:02:35;102856.97;;;9.35;63.33
8101;BME280;4093;53.470;9.832;2023-03-01T10:05:16;102869.88;;;9.35;63.62
8101;BME280;4093;53.470;9.832;2023-03-01T10:07:53;102880.16;;;9.73;63.36
8101;BME280;4093;53.470;9.832;2023-03-01T10:10:27;102872.72;;;9.90;62.32
8101;BME280;4093;53.470;9.832;2023-03-01T10:12:56;102879.69;;;9.12;65.06
8101;BME280;4093;53.470;9.832;2023-03-01T10:15:30;102866.06;;;8.83;65.32
8101;BME280;4093;53.470;9.832;2023-03-01T10:18:06;102880.47;;;9.10;65.43
8101;BME280;4093;53.470;9.832;2023-03-01T10:20:42;102879.22;;;9.30;65.89
8101;BME280;4093;53.470;9.832;2023-03-01T10:23:12;102878.09;;;8.83;68.90
8101;BME280;4093;53.470;9.832;2023-03-01T10:25:47;102884.78;;;7.51;72.67
8101;BME280;4093;53.470;9.832;2023-03-01T10:28:25;102893.34;;;8.08;72.55
8101;BME280;4093;53.470;9.832;2023-03-01T10:30:53;102895.97;;;8.11;73.00
8101;BME280;4093;53.470;9.832;2023-03-01T10:33:24;102907.03;;;8.07;73.17
8101;BME280;4093;53.470;9.832;2023-03-01T10:35:53;102895.50;;;7.95;74.13
8101;BME280;4093;53.470;9.832;2023-03-01T10:38:22;102899.75;;;8.54;72.16
8101;BME280;4093;53.470;9.832;2023-03-01T10:40:53;102894.34;;;8.45;72.28
8101;BME280;4093;53.470;9.832;2023-03-01T10:43:21;102890.59;;;8.66;72.47
8101;BME280;4093;53.470;9.832;2023-03-01T10:45:49;102887.44;;;9.14;70.36
8101;BME280;4093;53.470;9.832;2023-03-01T10:48:19;102882.09;;;8.06;72.96
8101;BME280;4093;53.470;9.832;2023-03-01T10:51:04;102884.28;;;9.25;70.45
8101;BME280;4093;53.470;9.832;2023-03-01T10:53:34;102876.75;;;8.98;69.42
8101;BME280;4093;53.470;9.832;2023-03-01T10:56:05;102880.31;;;8.04;71.75
8101;BME280;4093;53.470;9.832;2023-03-01T10:58:34;102893.19;;;8.34;71.74
8101;BME280;4093;53.470;9.832;2023-03-01T11:01:05;102891.91;;;8.50;73.81
8101;BME280;4093;53.470;9.832;2023-03-01T11:03:36;102881.75;;;8.56;71.37
8101;BME280;4093;53.470;9.832;2023-03-01T11:06:20;102893.06;;;9.34;70.77
8101;BME280;4093;53.470;9.832;2023-03-01T11:08:49;102895.66;;;9.73;68.48
8101;BME280;4093;53.470;9.832;2023-03-01T11:11:31;102879.44;;;8.35;73.39
8101;BME280;4093;53.470;9.832;2023-03-01T11:14:01;102878.63;;;8.69;73.29
8101;BME280;4093;53.470;9.832;2023-03-01T11:16:58;102876.91;;;9.04;72.08
8101;BME280;4093;53.470;9.832;2023-03-01T11:19:27;102868.84;;;8.91;71.22
8101;BME280;4093;53.470;9.832;2023-03-01T11:22:00;102882.13;;;9.44;70.72
8101;BME280;4093;53.470;9.832;2023-03-01T11:24:34;102869.81;;;8.96;71.76
8101;BME280;4093;53.470;9.832;2023-03-01T11:27:08;102866.94;;;9.20;71.49
8101;BME280;4093;53.470;9.832;2023-03-01T11:29:41;102858.41;;;9.24;71.09
8101;BME280;4093;53.470;9.832;2023-03-01T11:32:15;102864.31;;;9.58;70.74
8101;BME280;4093;53.470;9.832;2023-03-01T11:34:47;102854.31;;;8.94;71.90
8101;BME280;4093;53.470;9.832;2023-03-01T11:37:30;102849.94;;;9.28;70.61
8101;BME280;4093;53.470;9.832;2023-03-01T11:40:10;102853.25;;;9.63;70.06
8101;BME280;4093;53.470;9.832;2023-03-01T11:42:46;102855.47;;;9.87;69.21
8101;BME280;4093;53.470;9.832;2023-03-01T11:45:15;102841.84;;;9.14;70.24
8101;BME280;4093;53.470;9.832;2023-03-01T11:47:54;102848.03;;;9.21;71.17
8101;BME280;4093;53.470;9.832;2023-03-01T11:50:29;102852.59;;;9.72;70.72
8101;BME280;4093;53.470;9.832;2023-03-01T11:53:13;102840.91;;;9.11;71.60
8101;BME280;4093;53.470;9.832;2023-03-01T11:55:59;102858.41;;;9.24;71.71
8101;BME280;4093;53.470;9.832;2023-03-01T11:58:43;102814.09;;;8.33;74.46
8101;BME280;4093;53.470;9.832;2023-03-01T12:01:25;102850.41;;;9.12;73.43
8101;BME280;4093;53.470;9.832;2023-03-01T12:04:21;102846.97;;;9.50;72.51
8101;BME280;4093;53.470;9.832;2023-03-01T12:06:57;102821.63;;;9.33;70.66
8101;BME280;4093;53.470;9.832;2023-03-01T12:09:44;102822.44;;;8.92;72.65
8101;BME280;4093;53.470;9.832;2023-03-01T12:12:31;102836.84;;;9.60;70.50
8101;BME280;4093;53.470;9.832;2023-03-01T12:15:36;102836.50;;;9.87;70.63
8101;BME280;4093;53.470;9.832;2023-03-01T12:18:34;102826.72;;;10.17;71.68
8101;BME280;4093;53.470;9.832;2023-03-01T12:21:17;102823.97;;;9.22;73.12
8101;BME280;4093;53.470;9.832;2023-03-01T12:24:14;102817.47;;;9.00;73.06
8101;BME280;4093;53.470;9.832;2023-03-01T12:26:58;102801.47;;;8.42;75.96
8101;BME280;4093;53.470;9.832;2023-03-01T12:29:34;102809.72;;;9.39;73.79
8101;BME280;4093;53.470;9.832;2023-03-01T12:32:15;102798.44;;;9.34;72.97
8101;BME280;4093;53.470;9.832;2023-03-01T12:35:04;102796.78;;;9.39;72.46
8101;BME280;4093;53.470;9.832;2023-03-01T12:37:47;102801.91;;;9.36;73.87
8101;BME280;4093;53.470;9.832;2023-03-01T12:40:32;102795.34;;;9.52;72.79
8101;BME280;4093;53.470;9.832;2023-03-01T12:43:14;102776.34;;;9.48;72.21
8101;BME280;4093;53.470;9.832;2023-03-01T12:46:06;102795.75;;;9.72;72.52
8101;BME280;4093;53.470;9.832;2023-03-01T12:48:46;102781.63;;;9.55;72.96
8101;BME280;4093;53.470;9.832;2023-03-01T12:51:17;102776.19;;;9.41;73.16
8101;BME280;4093;53.470;9.832;2023-03-01T12:53:49;102786.78;;;9.55;72.96
8101;BME280;4093;53.470;9.832;2023-03-01T12:56:21;102780.38;;;9.34;74.29
8101;BME280;4093;53.470;9.832;2023-03-01T12:58:59;102776.25;;;9.03;76.53
8101;BME280;4093;53.470;9.832;2023-03-01T13:01:36;102782.75;;;9.25;76.06
8101;BME280;4093;53.470;9.832;2023-03-01T13:06:56;102785.59;;;9.37;76.03
8101;BME280;4093;53.470;9.832;2023-03-01T13:09:30;102778.44;;;9.25;75.92
8101;BME280;4093;53.470;9.832;2023-03-01T13:11:59;102766.13;;;9.12;76.47
8101;BME280;4093;53.470;9.832;2023-03-01T13:14:50;102766.31;;;8.82;78.04
8101;BME280;4093;53.470;9.832;2023-03-01T13:17:32;102761.91;;;8.40;78.37
8101;BME280;4093;53.470;9.832;2023-03-01T13:20:00;102763.91;;;8.90;77.58
8101;BME280;4093;53.470;9.832;2023-03-01T13:22:32;102762.16;;;9.28;75.77
8101;BME280;4093;53.470;9.832;2023-03-01T13:25:15;102754.66;;;9.40;76.06
8101;BME280;4093;53.470;9.832;2023-03-01T13:27:44;102751.59;;;9.16;77.02
8101;BME280;4093;53.470;9.832;2023-03-01T13:30:40;102764.88;;;9.80;75.09
8101;BME280;4093;53.470;9.832;2023-03-01T13:33:37;102751.59;;;10.07;73.58
8101;BME280;4093;53.470;9.832;2023-03-01T13:36:07;102745.47;;;10.00;74.46
8101;BME280;4093;53.470;9.832;2023-03-01T13:38:45;102748.09;;;10.05;73.88
8101;BME280;4093;53.470;9.832;2023-03-01T13:41:14;102744.66;;;10.04;73.92
8101;BME280;4093;53.470;9.832;2023-03-01T13:43:43;102747.44;;;9.68;74.83
8101;BME280;4093;53.470;9.832;2023-03-01T13:46:17;102738.44;;;9.47;76.19